Pagina principale
METAR-TAF:

METAR-TAF

Aeroporti :

Ankara Esenboğa, Turchia

Aeroporto di Esenboğa

latitudine: 40-07N, longitudine: 032-59E, altezza: 953 m

Osservazione

Il bollettino è stato emesso 38 minuti fa, alle 04:20 UTC
Vento 4 kt da nord/nord-ovest
Temperature -4°C
Umidità 93%
Pressione 1018 hPa
Visibilità: 8000 m

METAR: LTAC 180420Z 33004KT 8000 NSC M04/M05 Q1018 TEMPO 4000 BR

Ora: 07:58 (04:58 UTC)

Previsione

Il bollettino è stato emesso 6 ore e 18 minuti fa, alle 22:40 UTC
Previsione valida dal 18 alle 00 UTC al 18 alle 24 UTC
Vento 2 kt da direzioni variabili
Visibilità 10 km o più
nessuna nube inferiore a 1500 m e nessun cumulonembo
Temporaneamente
dal 18 alle 04 UTC al 18 alle 07 UTC
Visibilità: 4000 m
foschia
Evoluzione graduale
dal 18 alle 06 UTC al 18 alle 08 UTC
Nubi sparse ad un'altezza di 4000 ft

TAF: LTAC 172240Z 1800/1824 VRB02KT CAVOK TEMPO 1804/1807 4000 BR BECMG 1806/1808 SCT040

Osservazioni e previsioni meteorologiche di più di 4000 aeroporti (messaggi METAR e TAF).

Le stazioni disponibili sono rappresentate dai dischi gialli e rossi sulla carta.

Puntare il mouse per vedere il nome della stazione.

Clicca sopra per visualizzare le osservazioni e previsioni meteorologiche.

Per cambiare la mappa : fare clic sui pulsanti verdi con una croce nera per ingrandire, il pulsante verde con un trattino per diminuire, o sulla freccia verde per le mappe adiacenti.


METAR-TAF: